Time;durP1;ratioP1;P1;durP2;ratioP2;P2;SDS_P1;SDS_P2;PMS_P1;PMS_P2;Temp;Humidity;BMP_temperature;BMP_pressure;BME280_temperature;BME280_humidity;BME280_pressure;Samples;Min_cycle;Max_cycle;Signal;HPM_P1;HPM_P2
2022/12/12 00:01:39;;;;;;;25.60;14.35;;;;;;;0.28;86.06;101005.91;4925113;28;20041;-69
2022/12/12 00:04:07;;;;;;;22.30;13.73;;;;;;;0.27;86.14;101011.06;4927835;28;20048;-71
2022/12/12 00:06:34;;;;;;;21.05;13.27;;;;;;;0.28;86.11;101005.91;4928604;28;20091;-71
2022/12/12 00:09:02;;;;;;;20.70;12.38;;;;;;;0.27;86.25;101009.34;4933361;28;20062;-71
2022/12/12 00:11:31;;;;;;;20.85;12.82;;;;;;;0.30;86.02;101008.53;4935830;28;20048;-71
2022/12/12 00:13:58;;;;;;;20.35;12.80;;;;;;;0.30;86.14;101014.56;4934918;28;20044;-71
2022/12/12 00:16:27;;;;;;;20.17;12.60;;;;;;;0.29;86.09;101005.06;4945591;28;20048;-71
2022/12/12 00:18:54;;;;;;;20.02;12.25;;;;;;;0.29;86.05;101010.25;4934493;28;20052;-70
2022/12/12 00:21:26;;;;;;;18.67;12.02;;;;;;;0.28;86.15;101008.50;4934081;28;20047;-71
2022/12/12 00:23:54;;;;;;;20.38;12.43;;;;;;;0.28;86.21;101011.09;4946089;28;20052;-71
2022/12/12 00:26:27;;;;;;;21.67;12.23;;;;;;;0.28;86.24;101011.09;4954023;28;20078;-70
2022/12/12 00:28:57;;;;;;;22.25;13.45;;;;;;;0.28;86.02;101012.81;4951239;28;20074;-69
2022/12/12 00:31:25;;;;;;;21.23;13.13;;;;;;;0.28;85.91;101013.69;4953150;28;20043;-70
2022/12/12 00:33:53;;;;;;;18.05;12.05;;;;;;;0.27;85.78;101016.25;4954250;28;20040;-70
2022/12/12 00:36:25;;;;;;;21.35;12.50;;;;;;;0.23;85.33;101009.25;4952447;28;20047;-69
2022/12/12 00:38:54;;;;;;;20.30;12.40;;;;;;;0.20;85.36;101014.44;4951828;28;20417;-72
2022/12/12 00:41:22;;;;;;;20.90;12.15;;;;;;;0.17;85.37;101015.22;4954350;28;20052;-71
2022/12/12 00:43:50;;;;;;;19.77;12.35;;;;;;;0.15;85.41;101019.53;4953679;28;20071;-72
2022/12/12 00:46:21;;;;;;;20.52;12.55;;;;;;;0.12;85.25;101017.75;4951642;28;20044;-72
2022/12/12 00:48:52;;;;;;;19.45;11.68;;;;;;;0.12;85.19;101020.34;4951869;28;20480;-72
2022/12/12 00:51:22;;;;;;;19.63;11.43;;;;;;;0.09;85.42;101022.03;4937569;28;20502;-72
2022/12/12 00:53:50;;;;;;;19.42;11.98;;;;;;;0.06;85.30;101015.06;4951933;28;20051;-71
2022/12/12 00:56:19;;;;;;;19.77;12.00;;;;;;;0.04;85.28;101026.28;4952826;28;20046;-72
2022/12/12 00:58:48;;;;;;;19.95;12.45;;;;;;;0.05;85.22;101028.03;4951851;28;20510;-72
2022/12/12 01:01:20;;;;;;;19.80;12.40;;;;;;;0.04;85.37;101023.69;4952887;28;20204;-70
2022/12/12 01:03:47;;;;;;;19.92;12.38;;;;;;;0.04;85.50;101028.88;4951838;28;20095;-71
2022/12/12 01:06:15;;;;;;;20.20;12.35;;;;;;;0.04;85.42;101027.13;4952391;28;20545;-70
2022/12/12 01:08:42;;;;;;;18.73;12.52;;;;;;;0.02;85.74;101026.22;4952514;28;20498;-70
2022/12/12 01:11:13;;;;;;;20.10;12.60;;;;;;;0.03;85.66;101034.91;4949596;28;20047;-69
2022/12/12 01:13:42;;;;;;;20.77;12.73;;;;;;;0.01;85.44;101031.41;4954218;28;20514;-70
2022/12/12 01:16:10;;;;;;;20.13;13.25;;;;;;;-0.05;85.19;101027.84;4953081;28;20035;-70
2022/12/12 01:18:38;;;;;;;20.17;12.30;;;;;;;-0.12;85.01;101022.56;4951244;28;20111;-70
2022/12/12 01:21:13;;;;;;;21.27;13.50;;;;;;;-0.25;84.67;101026.63;4953191;28;20048;-70
2022/12/12 01:23:41;;;;;;;22.50;13.32;;;;;;;-0.41;84.53;101028.13;4952438;28;20059;-70
2022/12/12 01:26:15;;;;;;;19.88;12.52;;;;;;;-0.55;84.53;101025.25;4953328;28;20458;-71
2022/12/12 01:28:43;;;;;;;22.10;12.37;;;;;;;-0.68;84.75;101040.59;4952363;28;20040;-71
2022/12/12 01:31:14;;;;;;;22.67;14.05;;;;;;;-0.82;85.03;101039.44;4950245;28;20052;-69
2022/12/12 01:33:44;;;;;;;21.33;13.55;;;;;;;-0.95;85.04;101038.31;4952325;28;20039;-69
2022/12/12 01:36:20;;;;;;;20.58;13.30;;;;;;;-1.05;85.17;101041.56;4953185;28;20055;-70
2022/12/12 01:38:52;;;;;;;23.98;14.40;;;;;;;-1.15;85.65;101046.56;4952577;28;20035;-70
2022/12/12 01:41:20;;;;;;;21.23;13.30;;;;;;;-1.25;85.75;101048.06;4952132;28;20056;-70
2022/12/12 01:43:48;;;;;;;21.63;12.98;;;;;;;-1.33;85.71;101054.78;4952559;28;20506;-69
2022/12/12 01:46:21;;;;;;;24.13;14.40;;;;;;;-1.44;85.93;101054.56;4952919;28;20498;-70
2022/12/12 01:48:55;;;;;;;22.52;13.20;;;;;;;-1.52;86.10;101056.06;4953208;28;20052;-71
2022/12/12 01:51:26;;;;;;;23.45;14.20;;;;;;;-1.58;86.33;101058.53;4952733;28;20043;-71
2022/12/12 01:54:06;;;;;;;23.92;14.25;;;;;;;-1.64;86.62;101059.25;4952866;28;20075;-68
2022/12/12 01:56:36;;;;;;;25.45;14.65;;;;;;;-1.72;86.68;101064.25;4949016;28;20051;-70
2022/12/12 01:59:07;;;;;;;26.17;14.73;;;;;;;-1.83;86.69;101055.34;4951826;28;20047;-71
2022/12/12 02:01:36;;;;;;;24.02;14.25;;;;;;;-1.88;87.17;101062.13;4951724;28;20083;-71
2022/12/12 02:04:06;;;;;;;32.10;19.00;;;;;;;-1.94;86.94;101065.44;4952034;28;20051;-71
2022/12/12 02:06:34;;;;;;;56.25;31.13;;;;;;;-2.00;87.13;101062.72;4952794;28;20051;-70
2022/12/12 02:09:08;;;;;;;67.25;36.72;;;;;;;-2.07;86.98;101060.81;4952088;28;20054;-70
2022/12/12 02:11:43;;;;;;;46.85;26.13;;;;;;;-2.13;87.27;101063.25;4950269;28;20044;-70
2022/12/12 02:14:17;;;;;;;33.58;20.63;;;;;;;-2.20;87.49;101063.09;4952550;28;20469;-70
2022/12/12 02:17:37;;;;;;;43.90;26.48;;;;;;;-2.24;87.69;101066.44;4949067;28;20990;-71
2022/12/12 02:20:52;;;;;;;40.35;25.13;;;;;;;-2.29;87.70;101064.56;4947786;28;20059;-72
2022/12/12 02:23:50;;;;;;;40.92;24.85;;;;;;;-2.35;87.84;101057.53;4949978;28;20086;-72
2022/12/12 02:26:50;;;;;;;47.50;30.55;;;;;;;-2.41;87.86;101060.81;4952708;28;20850;-71
2022/12/12 02:30:00;;;;;;;35.13;21.35;;;;;;;-2.44;88.17;101063.31;4915736;28;20062;-72
2022/12/12 02:33:09;;;;;;;33.97;21.88;;;;;;;-2.46;88.30;101061.53;4947513;28;20565;-72
2022/12/12 02:36:07;;;;;;;34.78;20.25;;;;;;;-2.48;88.42;101070.94;4951740;28;20557;-72
2022/12/12 02:39:22;;;;;;;35.53;20.38;;;;;;;-2.53;88.76;101069.13;4948858;28;20047;-72
2022/12/12 02:42:04;;;;;;;33.03;18.30;;;;;;;-2.56;88.60;101066.44;4930656;28;20366;-71
2022/12/12 02:44:55;;;;;;;30.08;16.67;;;;;;;-2.60;88.82;101064.63;4951428;28;20071;-71
2022/12/12 02:47:30;;;;;;;25.92;16.42;;;;;;;-2.60;88.96;101071.47;4951545;28;20044;-72
2022/12/12 02:50:08;;;;;;;31.50;16.95;;;;;;;-2.59;88.95;101074.09;4951311;28;20096;-71
2022/12/12 02:52:35;;;;;;;25.42;15.90;;;;;;;-2.62;89.11;101074.03;4949780;28;20044;-71
2022/12/12 02:55:04;;;;;;;28.52;16.75;;;;;;;-2.66;88.89;101062.75;4950853;28;20051;-71
2022/12/12 02:57:32;;;;;;;28.92;17.23;;;;;;;-2.65;89.22;101073.94;4950665;28;20043;-71
2022/12/12 03:00:17;;;;;;;30.02;17.40;;;;;;;-2.69;89.29;101069.50;4950951;28;20104;-71
2022/12/12 03:09:58;;;;;;;29.35;16.95;;;;;;;-2.86;89.41;101075.09;4950127;28;20048;-72
2022/12/12 03:12:47;;;;;;;28.73;16.75;;;;;;;-2.92;89.41;101077.50;4949434;28;20060;-73
2022/12/12 03:15:41;;;;;;;30.20;17.45;;;;;;;-2.98;89.65;101075.63;4942905;28;20470;-73
2022/12/12 03:18:39;;;;;;;31.30;17.98;;;;;;;-3.02;89.75;101078.94;4943916;28;20067;-72
2022/12/12 03:21:20;;;;;;;31.65;18.10;;;;;;;-3.06;89.94;101073.63;4950029;28;20165;-72
2022/12/12 03:23:54;;;;;;;34.00;18.73;;;;;;;-3.08;90.20;101080.44;4944649;28;20059;-72
2022/12/12 03:26:46;;;;;;;;;;;;;;;-3.13;90.13;101082.91;4945768;28;20043;-72
2022/12/12 03:29:20;;;;;;;31.42;17.70;;;;;;;-3.18;90.20;101082.75;4950491;28;20650;-70
2022/12/12 03:31:57;;;;;;;32.00;17.63;;;;;;;-3.22;90.16;101083.50;4950846;28;20043;-71
2022/12/12 03:34:36;;;;;;;34.03;18.42;;;;;;;-3.26;90.41;101089.41;4950516;28;20110;-71
2022/12/12 03:37:27;;;;;;;35.20;18.85;;;;;;;-3.31;90.41;101084.09;4949911;28;20051;-72
2022/12/12 03:40:10;;;;;;;33.28;18.48;;;;;;;-3.38;90.61;101092.47;4947166;28;20048;-71
2022/12/12 03:42:46;;;;;;;33.72;19.45;;;;;;;-3.44;90.48;101082.84;4950012;28;20584;-70
2022/12/12 03:45:34;;;;;;;34.55;18.33;;;;;;;-3.45;90.59;101080.22;4950553;28;20044;-71
2022/12/12 03:48:30;;;;;;;36.53;18.73;;;;;;;-3.49;90.69;101089.56;4950365;28;20051;-71
2022/12/12 03:51:06;;;;;;;32.80;16.92;;;;;;;-3.53;90.65;101086.84;4945155;28;20803;-74
2022/12/12 03:54:12;;;;;;;34.03;19.35;;;;;;;-3.57;90.71;101096.19;4949594;28;20044;-74
2022/12/12 03:56:57;;;;;;;32.10;17.83;;;;;;;-3.61;90.77;101107.19;4947267;28;20043;-74
2022/12/12 03:59:46;;;;;;;35.63;17.80;;;;;;;-3.64;90.75;101096.81;4950998;28;20043;-74
2022/12/12 04:02:40;;;;;;;33.80;18.30;;;;;;;-3.66;90.86;101093.31;4947915;28;20048;-74
2022/12/12 04:05:20;;;;;;;34.63;18.42;;;;;;;-3.70;90.84;101094.91;4950358;28;20048;-74
2022/12/12 04:08:06;;;;;;;35.55;19.52;;;;;;;-3.73;90.95;101088.78;4949920;28;20046;-75
2022/12/12 04:13:59;;;;;;;40.92;20.50;;;;;;;-3.77;91.20;101091.25;4949820;28;20047;-72
2022/12/12 04:16:39;;;;;;;38.60;19.90;;;;;;;-3.80;91.03;101088.56;4951123;28;20066;-71
2022/12/12 04:26:37;;;;;;;36.22;20.17;;;;;;;-3.88;91.38;101100.34;4953118;28;20131;-71
2022/12/12 04:28:27;;;;;;;40.40;20.83;;;;;;;-3.90;91.49;101100.31;4952285;28;20549;-70
2022/12/12 04:31:03;;;;;;;39.30;20.50;;;;;;;-3.90;91.56;101100.31;4953955;28;20115;-70
2022/12/12 04:33:51;;;;;;;39.38;20.27;;;;;;;-3.93;91.38;101101.91;4953031;28;20040;-70
2022/12/12 04:36:22;;;;;;;40.95;21.40;;;;;;;-3.95;91.55;101106.13;4953358;28;20047;-71
2022/12/12 04:38:51;;;;;;;44.75;21.73;;;;;;;-3.94;91.75;101105.31;4948448;28;20047;-71
2022/12/12 04:41:21;;;;;;;39.55;20.90;;;;;;;-3.87;91.92;101116.69;4960336;28;20047;-71
2022/12/12 04:43:51;;;;;;;40.42;20.80;;;;;;;-3.86;91.78;101108.09;4955238;28;20119;-71
2022/12/12 04:46:27;;;;;;;40.45;21.75;;;;;;;-3.88;91.51;101113.22;4953583;28;20115;-71
2022/12/12 04:49:04;;;;;;;40.63;21.45;;;;;;;-3.91;91.66;101111.44;4954021;28;20044;-71
2022/12/12 04:51:41;;;;;;;41.50;21.63;;;;;;;-3.95;91.62;101112.13;4953317;28;20802;-71
2022/12/12 04:54:39;;;;;;;44.85;21.73;;;;;;;-3.98;91.62;101116.31;4952995;28;20079;-71
2022/12/12 04:57:14;;;;;;;41.83;20.80;;;;;;;-4.02;91.79;101110.19;4952964;28;20040;-70
2022/12/12 04:59:41;;;;;;;44.40;21.55;;;;;;;-4.05;91.81;101120.38;4952255;28;20047;-70
2022/12/12 05:02:34;;;;;;;41.05;22.33;;;;;;;-4.07;91.94;101119.47;4952681;28;20142;-71
2022/12/12 05:05:39;;;;;;;41.22;20.15;;;;;;;-4.11;91.87;101115.91;4943011;28;20135;-71
2022/12/12 05:08:34;;;;;;;39.95;20.40;;;;;;;-4.14;92.01;101109.78;4946250;28;20063;-71
2022/12/12 05:11:05;;;;;;;39.50;20.63;;;;;;;-4.14;91.75;101120.06;4946259;28;20051;-71
2022/12/12 05:13:37;;;;;;;44.28;22.33;;;;;;;-4.16;91.82;101122.59;4956635;28;20047;-71
2022/12/12 05:16:47;;;;;;;43.60;22.25;;;;;;;-4.17;91.87;101118.28;4955497;28;20115;-71
2022/12/12 05:19:14;;;;;;;45.05;22.33;;;;;;;-4.18;92.12;101120.81;4927460;29;20056;-71
2022/12/12 05:21:41;;;;;;;40.97;21.65;;;;;;;-4.18;92.12;101113.94;4950445;28;20067;-71
2022/12/12 05:24:08;;;;;;;45.47;22.67;;;;;;;-4.17;92.02;101117.41;4946561;28;20044;-70
2022/12/12 05:26:35;;;;;;;42.72;21.90;;;;;;;-4.18;92.24;101115.66;4952802;28;20048;-69
2022/12/12 05:29:04;;;;;;;46.35;22.10;;;;;;;-4.17;92.34;101118.28;4945467;28;20048;-70
2022/12/12 05:31:34;;;;;;;44.45;22.75;;;;;;;-4.19;92.21;101117.34;4957211;28;20099;-71
2022/12/12 05:34:03;;;;;;;46.25;21.80;;;;;;;-4.21;92.20;101114.72;4955159;28;20044;-69
2022/12/12 05:36:31;;;;;;;46.45;22.02;;;;;;;-4.21;92.15;101116.41;4947050;28;20379;-69
2022/12/12 05:38:58;;;;;;;42.22;21.35;;;;;;;-4.24;92.38;101116.31;4953234;28;20111;-69
2022/12/12 05:41:26;;;;;;;44.47;22.02;;;;;;;-4.26;92.22;101125.69;4951591;28;20513;-69
2022/12/12 05:43:53;;;;;;;45.20;23.58;;;;;;;-4.28;92.44;101122.16;4950738;28;20051;-70
2022/12/12 05:46:20;;;;;;;43.67;21.88;;;;;;;-4.32;92.44;101118.63;4953301;28;20059;-70
2022/12/12 05:48:49;;;;;;;47.63;22.67;;;;;;;-4.33;92.35;101128.88;4951492;28;20070;-70
2022/12/12 05:51:18;;;;;;;43.85;22.17;;;;;;;-4.35;92.28;101121.06;4953326;28;20638;-70
2022/12/12 05:53:46;;;;;;;42.42;22.40;;;;;;;-4.38;92.31;101121.84;4952865;28;20056;-70
2022/12/12 05:56:13;;;;;;;44.75;22.98;;;;;;;-4.42;92.12;101119.13;4951706;28;20046;-70
2022/12/12 05:58:41;;;;;;;42.75;21.52;;;;;;;-4.44;92.33;101129.38;4951188;28;20044;-70
2022/12/12 06:01:09;;;;;;;47.60;23.13;;;;;;;-4.47;92.29;101131.81;4952998;28;20040;-70
2022/12/12 06:03:36;;;;;;;47.50;23.88;;;;;;;-4.48;92.42;101130.06;4957286;28;20051;-69
2022/12/12 06:06:03;;;;;;;49.47;23.17;;;;;;;-4.49;92.54;101137.75;4952388;28;20039;-69
2022/12/12 06:08:30;;;;;;;49.60;22.60;;;;;;;-4.50;92.35;101134.28;4952607;28;20123;-70
2022/12/12 06:10:58;;;;;;;48.38;23.27;;;;;;;-4.52;92.48;101136.81;4950369;28;20284;-69
2022/12/12 06:13:25;;;;;;;48.67;22.95;;;;;;;-4.53;92.54;101136.75;4946260;28;21259;-69
2022/12/12 06:15:52;;;;;;;47.15;22.98;;;;;;;-4.55;92.54;101135.81;4948551;28;20083;-70
2022/12/12 06:18:19;;;;;;;48.45;22.90;;;;;;;-4.56;92.50;101145.22;4948752;28;20040;-70
2022/12/12 06:20:46;;;;;;;46.55;21.35;;;;;;;-4.57;92.86;101140.03;4950607;28;20039;-70
2022/12/12 06:23:13;;;;;;;49.78;22.02;;;;;;;-4.58;92.75;101149.44;4949921;28;20776;-71
2022/12/12 06:25:40;;;;;;;49.72;23.58;;;;;;;-4.60;92.56;101145.94;4945962;28;20522;-71
2022/12/12 06:28:07;;;;;;;46.33;22.33;;;;;;;-4.61;92.63;101148.44;4932504;28;20103;-71
2022/12/12 06:30:35;;;;;;;45.47;22.88;;;;;;;-4.68;92.61;101148.25;4955139;28;20040;-71
2022/12/12 06:33:03;;;;;;;44.25;21.90;;;;;;;-4.71;92.31;101152.41;4964359;28;20131;-71
2022/12/12 06:35:30;;;;;;;50.95;22.42;;;;;;;-4.74;92.44;101154.84;4950425;28;20039;-71
2022/12/12 06:37:57;;;;;;;49.33;23.35;;;;;;;-4.76;92.61;101153.91;4946893;28;20545;-71
2022/12/12 06:40:24;;;;;;;43.58;21.52;;;;;;;-4.79;92.55;101157.25;4946283;28;20047;-70
2022/12/12 06:42:51;;;;;;;44.38;22.45;;;;;;;-4.80;92.45;101162.34;4953190;28;20533;-71
2022/12/12 06:45:18;;;;;;;45.05;22.38;;;;;;;-4.83;92.53;101160.50;4960556;28;20078;-70
2022/12/12 06:47:46;;;;;;;47.63;22.25;;;;;;;-4.86;92.51;101158.72;4950881;28;20577;-71
2022/12/12 06:50:13;;;;;;;44.35;22.17;;;;;;;-4.87;92.60;101161.22;4959676;28;20040;-71
2022/12/12 06:52:46;;;;;;;49.55;23.33;;;;;;;-4.88;92.54;101164.63;4957742;28;20043;-71
2022/12/12 06:55:13;;;;;;;43.10;22.15;;;;;;;-4.86;92.78;101166.41;4955370;28;20047;-71
2022/12/12 06:57:40;;;;;;;52.03;23.00;;;;;;;-4.83;93.22;101170.81;4955261;28;20139;-71
2022/12/12 07:00:08;;;;;;;49.22;23.33;;;;;;;-4.76;93.34;101169.34;4952536;28;20537;-71
2022/12/12 07:02:35;;;;;;;47.13;21.88;;;;;;;-4.69;93.34;101174.78;4955374;28;20047;-72
2022/12/12 07:05:03;;;;;;;45.15;21.33;;;;;;;-4.59;93.43;101169.97;4956259;28;20573;-72
2022/12/12 07:07:31;;;;;;;48.88;22.98;;;;;;;-4.53;93.72;101175.38;4959970;28;20047;-72
2022/12/12 07:09:58;;;;;;;46.22;23.00;;;;;;;-4.49;93.62;101166.91;4960122;28;20051;-72
2022/12/12 07:12:25;;;;;;;52.97;22.75;;;;;;;-4.44;93.44;101174.81;4955151;28;20044;-71
2022/12/12 07:14:52;;;;;;;50.70;23.60;;;;;;;-4.41;93.46;101173.22;4956408;28;20051;-72
2022/12/12 07:17:21;;;;;;;47.38;22.05;;;;;;;-4.41;93.42;101180.06;4955997;28;20039;-72
2022/12/12 07:19:48;;;;;;;53.45;22.95;;;;;;;-4.41;93.34;101177.50;4949058;28;20043;-72
2022/12/12 07:22:15;;;;;;;50.80;22.48;;;;;;;-4.44;93.11;101174.81;4953611;28;20059;-71
2022/12/12 07:24:42;;;;;;;51.50;22.40;;;;;;;-4.46;92.93;101185.06;4951823;28;20048;-72
2022/12/12 07:27:09;;;;;;;47.38;23.02;;;;;;;-4.49;92.69;101186.66;4951657;28;20036;-71
2022/12/12 07:29:37;;;;;;;49.15;23.10;;;;;;;-4.52;92.71;101187.38;4951709;28;20059;-71
2022/12/12 07:32:04;;;;;;;48.70;23.58;;;;;;;-4.55;92.77;101195.88;4934426;28;20107;-71
2022/12/12 07:34:31;;;;;;;50.03;23.58;;;;;;;-4.58;92.78;101200.91;4951380;28;20515;-72
2022/12/12 07:36:58;;;;;;;45.33;22.27;;;;;;;-4.59;92.71;101195.72;4950298;28;20083;-72
2022/12/12 07:39:33;;;;;;;49.00;22.42;;;;;;;-4.61;92.82;101202.50;4951595;28;20050;-72
2022/12/12 07:42:00;;;;;;;49.13;22.90;;;;;;;-4.63;92.72;101202.44;4946793;28;20051;-72
2022/12/12 07:44:27;;;;;;;49.97;23.48;;;;;;;-4.63;92.69;101206.72;4950349;28;20091;-72
2022/12/12 07:46:57;;;;;;;51.60;23.10;;;;;;;-4.64;92.70;101215.25;4939031;28;20048;-72
2022/12/12 07:49:27;;;;;;;50.28;22.63;;;;;;;-4.62;92.50;101216.16;4951842;28;20598;-72
2022/12/12 07:51:54;;;;;;;54.00;24.13;;;;;;;-4.61;92.91;101212.78;4952070;28;20130;-71
2022/12/12 07:54:21;;;;;;;50.75;24.05;;;;;;;-4.59;92.85;101222.34;4948991;28;20043;-71
2022/12/12 07:56:49;;;;;;;46.92;23.75;;;;;;;-4.57;92.98;101212.94;4954431;28;20098;-71
2022/12/12 07:59:16;;;;;;;49.97;23.60;;;;;;;-4.54;92.74;101223.38;4951749;28;20107;-71
2022/12/12 08:01:43;;;;;;;51.47;24.13;;;;;;;-4.49;92.73;101212.38;4954754;28;20498;-71
2022/12/12 08:04:10;;;;;;;48.22;22.50;;;;;;;-4.49;92.83;101220.09;4952868;28;20497;-71
2022/12/12 08:06:37;;;;;;;52.25;23.77;;;;;;;-4.47;92.79;101224.47;4940012;28;20128;-71
2022/12/12 08:09:05;;;;;;;47.63;23.13;;;;;;;-4.47;92.71;101216.75;4954904;28;20076;-71
2022/12/12 08:11:32;;;;;;;52.75;23.77;;;;;;;-4.46;92.72;101226.25;4954801;28;20631;-71
2022/12/12 08:14:09;;;;;;;50.55;23.33;;;;;;;-4.45;92.60;101230.56;4953382;28;20040;-71
2022/12/12 08:16:39;;;;;;;52.15;23.70;;;;;;;-4.46;92.87;101228.81;4945796;28;20047;-71
2022/12/12 08:19:07;;;;;;;52.30;23.98;;;;;;;-4.47;92.91;101231.31;4954496;28;20044;-71
2022/12/12 08:21:34;;;;;;;49.60;24.40;;;;;;;-4.47;92.84;101228.75;4954693;28;20055;-70
2022/12/12 08:24:02;;;;;;;51.15;22.65;;;;;;;-4.43;92.97;101230.63;4956926;28;20047;-71
2022/12/12 08:26:30;;;;;;;52.97;24.30;;;;;;;-4.38;92.92;101232.53;4950988;28;20051;-71
2022/12/12 08:28:58;;;;;;;45.38;23.23;;;;;;;-4.33;92.83;101221.56;4963332;28;20659;-71
2022/12/12 08:31:26;;;;;;;48.17;23.52;;;;;;;-4.29;92.91;101223.41;4972894;28;20055;-70
2022/12/12 08:33:54;;;;;;;49.47;23.77;;;;;;;-4.24;92.70;101222.75;4954121;28;20039;-71
2022/12/12 08:36:39;;;;;;;46.15;22.77;;;;;;;-4.16;92.76;101220.47;4953168;28;20044;-70
2022/12/12 08:39:13;;;;;;;46.28;22.48;;;;;;;-4.12;92.94;101224.88;4954224;28;20052;-71
2022/12/12 08:41:44;;;;;;;50.53;23.48;;;;;;;-4.06;93.01;101232.84;4954536;28;20039;-71
2022/12/12 08:44:12;;;;;;;53.90;22.48;;;;;;;-3.99;92.79;101228.78;4954496;28;20044;-71
2022/12/12 08:46:40;;;;;;;51.95;24.67;;;;;;;-3.94;92.91;101237.53;4954366;28;20051;-71
2022/12/12 08:49:09;;;;;;;47.00;22.27;;;;;;;-3.86;92.75;101236.94;4954780;28;20047;-71
2022/12/12 08:51:38;;;;;;;53.45;24.15;;;;;;;-3.79;92.92;101232.06;4955138;28;20054;-70
2022/12/12 08:54:07;;;;;;;47.03;23.23;;;;;;;-3.70;92.90;101236.66;4954738;28;20490;-71
2022/12/12 08:56:34;;;;;;;49.90;23.45;;;;;;;-3.64;93.13;101229.13;4954582;28;20051;-71
2022/12/12 08:59:01;;;;;;;51.05;23.85;;;;;;;-3.54;93.21;101238.06;4954278;28;20052;-71
2022/12/12 09:01:28;;;;;;;46.42;22.73;;;;;;;-3.47;93.14;101232.28;4954660;28;20050;-71
2022/12/12 09:03:57;;;;;;;48.63;22.75;;;;;;;-3.37;93.11;101238.63;4955053;28;20119;-71
2022/12/12 09:06:25;;;;;;;46.35;22.50;;;;;;;-3.28;93.12;101238.03;4953472;28;20533;-71
2022/12/12 09:08:55;;;;;;;41.78;21.85;;;;;;;-3.21;93.18;101236.53;4954206;28;20055;-71
2022/12/12 09:11:24;;;;;;;41.92;22.23;;;;;;;-3.15;93.19;101236.72;4954175;28;20050;-71
2022/12/12 09:13:51;;;;;;;48.28;22.90;;;;;;;-3.07;93.07;101237.88;4954185;28;20043;-71
2022/12/12 09:16:19;;;;;;;44.47;22.95;;;;;;;-2.99;93.12;101245.84;4954654;28;20458;-71
2022/12/12 09:18:46;;;;;;;46.78;21.75;;;;;;;-2.93;92.95;101243.47;4954280;28;20142;-71
2022/12/12 09:21:16;;;;;;;43.95;21.63;;;;;;;-2.87;92.97;101255.69;4954643;28;20653;-71
2022/12/12 09:23:46;;;;;;;41.10;20.67;;;;;;;-2.81;92.96;101259.34;4953816;28;20565;-71
2022/12/12 09:26:14;;;;;;;38.10;20.90;;;;;;;-2.74;93.01;101255.22;4953871;28;20576;-71
2022/12/12 09:28:41;;;;;;;41.22;21.13;;;;;;;-2.67;92.70;101257.19;4936223;28;20070;-71
2022/12/12 09:31:11;;;;;;;43.30;21.23;;;;;;;-2.60;92.68;101250.50;4954445;28;20095;-71
2022/12/12 09:33:39;;;;;;;38.95;20.10;;;;;;;-2.53;92.75;101248.97;4954505;28;20048;-71
2022/12/12 09:36:08;;;;;;;38.63;20.13;;;;;;;-2.47;92.62;101246.56;4954234;28;20073;-71
2022/12/12 09:38:35;;;;;;;39.42;20.38;;;;;;;-2.41;92.54;101249.31;4953653;28;20477;-70
2022/12/12 09:41:13;;;;;;;38.67;20.08;;;;;;;-2.35;92.24;101252.13;4953258;28;20044;-70
2022/12/12 09:44:10;;;;;;;41.13;20.80;;;;;;;-2.29;92.32;101253.97;4950492;28;20415;-70
2022/12/12 09:46:49;;;;;;;40.22;20.25;;;;;;;-2.25;92.02;101252.38;4953420;28;20052;-70
2022/12/12 09:50:00;;;;;;;37.28;19.30;;;;;;;-2.20;92.00;101255.94;4934550;29;20040;-70
2022/12/12 09:52:35;;;;;;;41.88;23.98;;;;;;;-2.13;91.99;101246.69;4910856;29;20311;-71
2022/12/12 09:55:19;;;;;;;216.25;117.72;;;;;;;-2.08;91.79;101239.91;4950827;28;20477;-70
2022/12/12 09:58:01;;;;;;;38.00;20.83;;;;;;;-2.04;91.40;101245.25;4953676;28;20525;-70
2022/12/12 10:00:34;;;;;;;41.10;21.50;;;;;;;-1.98;91.53;101244.50;4953721;28;20138;-70
2022/12/12 10:03:24;;;;;;;43.00;24.92;;;;;;;-1.92;91.52;101248.97;4936920;28;20498;-70
2022/12/12 10:06:14;;;;;;;85.32;48.72;;;;;;;-1.91;91.21;101245.56;4950950;28;20035;-70
2022/12/12 10:09:23;;;;;;;37.40;21.10;;;;;;;-1.85;91.22;101248.31;4953025;28;20877;-70
2022/12/12 10:11:53;;;;;;;38.03;22.92;;;;;;;-1.80;91.04;101244.13;4933989;29;20056;-70
2022/12/12 10:14:57;;;;;;;43.83;26.02;;;;;;;-1.74;90.92;101241.72;4934754;29;20044;-70
2022/12/12 10:17:33;;;;;;;46.92;29.10;;;;;;;-1.68;90.79;101238.44;4933642;29;20120;-71
2022/12/12 10:20:22;;;;;;;36.35;20.42;;;;;;;-1.63;90.62;101244.59;4951951;28;20070;-72
2022/12/12 10:23:17;;;;;;;101.05;61.42;;;;;;;-1.60;90.00;101239.50;4952823;28;20172;-71
2022/12/12 10:26:03;;;;;;;65.03;36.25;;;;;;;-1.54;90.49;101235.31;4953332;28;20036;-71
2022/12/12 10:28:32;;;;;;;75.47;37.63;;;;;;;-1.49;90.25;101236.31;4951602;28;20048;-72
2022/12/12 10:31:52;;;;;;;172.40;70.75;;;;;;;-1.43;90.05;101227.00;4951061;28;20046;-71
2022/12/12 10:35:09;;;;;;;109.70;52.22;;;;;;;-1.35;89.91;101226.31;4915021;28;20064;-71
2022/12/12 10:37:51;;;;;;;40.17;22.65;;;;;;;-1.31;90.01;101212.59;4939870;28;20429;-72
2022/12/12 10:40:58;;;;;;;84.38;56.72;;;;;;;-1.24;89.81;101219.69;4952906;28;20513;-72
2022/12/12 10:44:04;;;;;;;35.28;21.63;;;;;;;-1.20;89.68;101212.88;4951373;28;20052;-71
2022/12/12 10:46:50;;;;;;;41.80;22.60;;;;;;;-1.16;89.46;101213.00;4953129;28;20032;-72
2022/12/12 10:49:22;;;;;;;33.58;18.60;;;;;;;-1.11;89.35;101213.97;4953092;28;20051;-72
2022/12/12 10:51:52;;;;;;;33.53;17.92;;;;;;;-1.06;89.30;101221.84;4952506;28;20040;-71
2022/12/12 10:54:25;;;;;;;31.67;17.60;;;;;;;-1.02;89.27;101209.88;4952264;28;20047;-72
2022/12/12 10:57:19;;;;;;;33.15;16.60;;;;;;;-0.97;88.95;101211.69;4952563;28;20047;-72
2022/12/12 10:59:54;;;;;;;32.22;15.98;;;;;;;-0.92;88.85;101208.34;4952938;28;20130;-72
2022/12/12 11:02:38;;;;;;;30.02;16.48;;;;;;;-0.91;88.75;101208.38;4951642;28;20056;-71
2022/12/12 11:05:22;;;;;;;29.37;15.70;;;;;;;-0.84;88.70;101199.94;4953061;28;20036;-72
2022/12/12 11:08:05;;;;;;;26.67;15.40;;;;;;;-0.77;88.53;101195.75;4952924;28;20261;-71
2022/12/12 11:10:37;;;;;;;79.18;39.17;;;;;;;-0.72;88.25;101199.31;4952254;28;20032;-72
2022/12/12 11:13:09;;;;;;;31.55;17.25;;;;;;;-0.65;88.48;101198.59;4952056;28;20058;-72
2022/12/12 11:15:44;;;;;;;36.78;19.52;;;;;;;-0.58;88.36;101201.34;4952838;28;20039;-71
2022/12/12 11:18:21;;;;;;;34.05;17.13;;;;;;;-0.52;88.58;101199.75;4951734;28;20524;-72
2022/12/12 11:21:05;;;;;;;44.78;31.67;;;;;;;-0.45;88.02;101199.88;4952494;28;20119;-72
2022/12/12 11:23:38;;;;;;;34.75;19.17;;;;;;;-0.39;87.78;101189.63;4951848;28;20059;-72
2022/12/12 11:26:18;;;;;;;27.95;15.05;;;;;;;-0.36;88.16;101188.00;4952637;28;20056;-71
2022/12/12 11:28:58;;;;;;;27.63;14.70;;;;;;;-0.29;87.92;101198.47;4952635;28;20509;-71
2022/12/12 11:31:31;;;;;;;28.98;14.85;;;;;;;-0.22;87.50;101193.44;4954468;28;20070;-72
2022/12/12 11:34:05;;;;;;;26.90;14.40;;;;;;;-0.19;87.09;101187.44;4955334;28;20040;-71
2022/12/12 11:36:41;;;;;;;28.70;14.40;;;;;;;-0.16;86.90;101192.69;4937153;29;20075;-71
2022/12/12 11:39:20;;;;;;;71.95;37.55;;;;;;;-0.11;86.71;101197.97;4947624;28;20040;-71
2022/12/12 11:42:18;;;;;;;32.05;18.05;;;;;;;-0.07;86.70;101195.47;4955553;28;20039;-69
2022/12/12 11:44:57;;;;;;;36.53;18.65;;;;;;;0.02;86.72;101206.84;4955440;28;20528;-70
2022/12/12 11:47:37;;;;;;;35.45;20.02;;;;;;;0.04;86.62;101197.38;4954765;28;20048;-70
2022/12/12 11:50:15;;;;;;;36.78;20.73;;;;;;;0.09;86.41;101196.63;4954111;28;20494;-70
2022/12/12 11:52:43;;;;;;;29.73;18.73;;;;;;;0.12;86.71;101190.63;4955599;28;20409;-70
2022/12/12 11:55:18;;;;;;;24.20;13.45;;;;;;;0.15;86.39;101182.91;4955354;28;20047;-70
2022/12/12 11:57:45;;;;;;;;;;;;;;;0.18;86.25;101182.94;4955755;28;20055;-70
2022/12/12 12:00:20;;;;;;;26.60;14.35;;;;;;;0.21;86.03;101180.41;4956180;28;19935;-70
2022/12/12 12:02:50;;;;;;;28.45;14.18;;;;;;;0.25;85.38;101186.53;4950426;28;20040;-70
2022/12/12 12:06:08;;;;;;;27.92;13.88;;;;;;;0.28;85.41;101178.81;4954996;28;20155;-69